createdAt,value
2022-12-04T00:01:20.319Z,55.82
2022-12-04T00:03:47.736Z,55.80
2022-12-04T00:06:18.367Z,55.22
2022-12-04T00:08:47.638Z,55.08
2022-12-04T00:11:20.586Z,55.28
2022-12-04T00:13:48.195Z,55.20
2022-12-04T00:16:22.622Z,55.58
2022-12-04T00:18:50.377Z,55.53
2022-12-04T00:21:19.360Z,55.36
2022-12-04T00:23:47.077Z,54.91
2022-12-04T00:26:19.087Z,54.67
2022-12-04T00:28:46.499Z,55.23
2022-12-04T00:31:17.498Z,54.96
2022-12-04T00:33:45.618Z,54.50
2022-12-04T00:36:17.301Z,54.39
2022-12-04T00:38:44.877Z,54.61
2022-12-04T00:41:22.823Z,55.26
2022-12-04T00:43:50.207Z,54.93
2022-12-04T00:46:17.763Z,54.74
2022-12-04T00:48:45.404Z,54.86
2022-12-04T00:51:16.279Z,54.83
2022-12-04T00:53:44.057Z,54.55
2022-12-04T00:56:20.397Z,54.60
2022-12-04T00:58:47.758Z,54.73
2022-12-04T01:01:18.371Z,54.28
2022-12-04T01:03:46.190Z,54.21
2022-12-04T01:06:33.347Z,54.17
2022-12-04T01:09:03.858Z,54.71
2022-12-04T01:11:31.260Z,55.09
2022-12-04T01:13:59.272Z,54.99
2022-12-04T01:16:36.437Z,55.09
2022-12-04T01:19:07.274Z,54.42
2022-12-04T01:21:35.299Z,54.40
2022-12-04T01:24:02.580Z,54.51
2022-12-04T01:26:30.343Z,54.24
2022-12-04T01:28:57.517Z,54.48
2022-12-04T01:31:24.816Z,54.83
2022-12-04T01:33:52.449Z,54.59
2022-12-04T01:36:24.844Z,54.62
2022-12-04T01:38:51.939Z,54.63
2022-12-04T01:41:24.037Z,54.90
2022-12-04T01:44:13.018Z,54.97
2022-12-04T01:46:41.738Z,54.73
2022-12-04T01:49:40.128Z,54.87
2022-12-04T01:52:14.368Z,54.21
2022-12-04T01:54:45.371Z,54.07
2022-12-04T01:57:22.349Z,54.42
2022-12-04T01:59:58.079Z,54.48
2022-12-04T02:02:40.293Z,54.42
2022-12-04T02:05:12.435Z,54.35
2022-12-04T02:07:41.771Z,54.49
2022-12-04T02:10:11.680Z,54.45
2022-12-04T02:13:20.376Z,54.44
2022-12-04T02:16:14.275Z,54.33
2022-12-04T02:18:57.874Z,54.69
2022-12-04T02:21:30.270Z,54.75
2022-12-04T02:24:31.066Z,54.49
2022-12-04T02:27:25.011Z,54.66
2022-12-04T02:30:01.816Z,54.11
2022-12-04T02:32:49.914Z,54.25
2022-12-04T02:35:36.061Z,54.01
2022-12-04T02:38:17.108Z,53.95
2022-12-04T02:41:20.541Z,53.93
2022-12-04T02:43:52.640Z,54.18
2022-12-04T02:46:29.051Z,54.37
2022-12-04T02:49:01.891Z,54.62
2022-12-04T02:51:34.285Z,54.12
2022-12-04T02:54:25.879Z,54.09
2022-12-04T02:56:54.752Z,54.36
2022-12-04T02:59:31.233Z,54.03
2022-12-04T03:02:04.478Z,54.20
2022-12-04T03:04:31.972Z,54.19
2022-12-04T03:07:09.799Z,54.36
2022-12-04T03:09:45.816Z,53.82
2022-12-04T03:12:38.484Z,53.91
2022-12-04T03:15:23.593Z,54.42
2022-12-04T03:18:00.953Z,54.55
2022-12-04T03:20:31.762Z,54.75
2022-12-04T03:23:09.107Z,54.01
2022-12-04T03:25:46.695Z,54.25
2022-12-04T03:29:07.179Z,54.21
2022-12-04T03:31:50.221Z,53.99
2022-12-04T03:34:29.559Z,53.85
2022-12-04T03:37:04.091Z,54.17
2022-12-04T03:39:49.984Z,54.22
2022-12-04T03:42:24.918Z,54.49
2022-12-04T03:45:12.098Z,54.26
2022-12-04T03:48:05.590Z,54.06
2022-12-04T03:51:04.914Z,54.45
2022-12-04T03:54:00.375Z,54.31
2022-12-04T03:56:33.291Z,54.17
2022-12-04T03:59:09.309Z,54.30
2022-12-04T04:01:42.976Z,54.37
2022-12-04T04:04:17.289Z,54.58
2022-12-04T04:06:51.224Z,54.77
2022-12-04T04:09:27.269Z,54.81
2022-12-04T04:12:27.281Z,53.71
2022-12-04T04:15:22.458Z,53.86
2022-12-04T04:18:10.654Z,53.74
2022-12-04T04:21:10.156Z,54.19
2022-12-04T04:24:05.256Z,54.49
2022-12-04T04:26:40.567Z,54.75
2022-12-04T04:29:09.896Z,54.82
2022-12-04T04:31:52.815Z,54.86
2022-12-04T04:34:57.720Z,54.68
2022-12-04T04:37:57.050Z,54.49
2022-12-04T04:40:40.536Z,55.15
2022-12-04T04:43:22.571Z,55.42
2022-12-04T04:46:06.114Z,55.26
2022-12-04T04:48:39.863Z,55.05
2022-12-04T04:51:07.548Z,55.16
2022-12-04T04:53:41.856Z,55.77
2022-12-04T04:56:09.516Z,55.72
2022-12-04T04:58:36.697Z,55.51
2022-12-04T05:01:09.556Z,55.71
2022-12-04T05:03:36.668Z,55.71
2022-12-04T05:06:04.058Z,55.73
2022-12-04T05:08:31.260Z,55.97
2022-12-04T05:10:58.302Z,55.46
2022-12-04T05:13:25.725Z,55.37
2022-12-04T05:16:01.993Z,55.72
2022-12-04T05:18:30.369Z,56.05
2022-12-04T05:20:58.212Z,56.00
2022-12-04T05:23:25.863Z,56.38
2022-12-04T05:26:01.173Z,56.29
2022-12-04T05:28:28.449Z,56.18
2022-12-04T05:31:01.168Z,56.31
2022-12-04T05:33:29.219Z,56.81
2022-12-04T05:36:08.546Z,56.61
2022-12-04T05:38:37.078Z,56.55
2022-12-04T05:41:06.215Z,56.82
2022-12-04T05:43:34.354Z,57.04
2022-12-04T05:46:07.586Z,57.10
2022-12-04T05:48:36.391Z,56.61
2022-12-04T05:51:10.626Z,56.04
2022-12-04T05:53:38.808Z,56.42
2022-12-04T05:56:07.561Z,56.64
2022-12-04T05:58:37.296Z,56.62
2022-12-04T06:01:18.068Z,56.78
2022-12-04T06:03:45.419Z,56.69
2022-12-04T06:06:19.500Z,56.06
2022-12-04T06:08:50.564Z,56.16
2022-12-04T06:11:33.361Z,56.16
2022-12-04T06:14:03.988Z,55.91
2022-12-04T06:16:38.067Z,56.50
2022-12-04T06:19:14.792Z,55.80
2022-12-04T06:21:44.258Z,55.96
2022-12-04T06:24:19.272Z,55.63
2022-12-04T06:27:18.619Z,56.09
2022-12-04T06:29:34.173Z,56.00
2022-12-04T06:32:01.376Z,55.66
2022-12-04T06:34:28.708Z,55.38
2022-12-04T06:36:55.905Z,55.40
2022-12-04T06:39:23.024Z,55.00
2022-12-04T06:41:50.075Z,54.77
2022-12-04T06:44:17.333Z,55.13
2022-12-04T06:46:47.252Z,54.75
2022-12-04T06:49:15.091Z,55.29
2022-12-04T06:51:42.468Z,55.17
2022-12-04T06:54:10.834Z,55.15
2022-12-04T06:56:37.970Z,55.70
2022-12-04T06:59:05.783Z,56.22
2022-12-04T07:01:34.647Z,55.81
2022-12-04T07:04:04.373Z,54.91
2022-12-04T07:06:36.824Z,54.79
2022-12-04T07:09:07.328Z,54.95
2022-12-04T07:11:34.728Z,55.20
2022-12-04T07:14:02.533Z,55.02
2022-12-04T07:16:34.078Z,55.44
2022-12-04T07:19:05.683Z,55.28
2022-12-04T07:21:34.596Z,55.33
2022-12-04T07:24:02.501Z,55.53
2022-12-04T07:26:31.034Z,55.78
2022-12-04T07:28:59.410Z,55.92
2022-12-04T07:31:29.708Z,55.56
2022-12-04T07:33:57.685Z,55.21
2022-12-04T07:36:26.194Z,55.38
2022-12-04T07:38:56.122Z,55.18
2022-12-04T07:41:23.878Z,55.33
2022-12-04T07:43:51.208Z,55.44
2022-12-04T07:46:26.845Z,55.54
2022-12-04T07:48:59.236Z,55.67
2022-12-04T07:51:29.488Z,55.01
2022-12-04T07:54:03.799Z,55.11
2022-12-04T07:56:32.158Z,55.42
2022-12-04T07:59:00.349Z,54.86
2022-12-04T08:01:27.952Z,54.64
2022-12-04T08:03:58.894Z,54.79
2022-12-04T08:06:28.363Z,55.35
2022-12-04T08:08:57.340Z,55.53
2022-12-04T08:11:27.495Z,55.82
2022-12-04T08:14:01.003Z,56.36
2022-12-04T08:16:31.154Z,56.54
2022-12-04T08:18:59.485Z,56.49
2022-12-04T08:21:29.915Z,56.67
2022-12-04T08:23:59.298Z,56.35
2022-12-04T08:26:30.069Z,56.46
2022-12-04T08:28:57.793Z,56.44
2022-12-04T08:31:28.251Z,56.22
2022-12-04T08:33:58.243Z,56.29
2022-12-04T08:36:26.338Z,56.20
2022-12-04T08:38:53.705Z,56.05
2022-12-04T08:41:24.315Z,57.35
2022-12-04T08:43:54.795Z,57.39
2022-12-04T08:46:23.785Z,57.69
2022-12-04T08:48:51.081Z,57.24
2022-12-04T08:51:25.082Z,57.85
2022-12-04T08:53:57.888Z,57.41
2022-12-04T08:56:27.162Z,57.12
2022-12-04T08:58:56.842Z,56.71
2022-12-04T09:01:25.833Z,56.79
2022-12-04T09:03:53.237Z,57.01
2022-12-04T09:06:21.478Z,57.40
2022-12-04T09:08:48.857Z,57.78
2022-12-04T09:11:20.181Z,57.93
2022-12-04T09:13:48.504Z,57.64
2022-12-04T09:16:20.070Z,57.46
2022-12-04T09:18:47.871Z,57.03
2022-12-04T09:21:17.736Z,57.57
2022-12-04T09:23:45.712Z,56.67
2022-12-04T09:26:24.831Z,56.61
2022-12-04T09:28:52.999Z,57.08
2022-12-04T09:31:22.381Z,56.84
2022-12-04T09:33:49.868Z,57.46
2022-12-04T09:36:17.348Z,57.63
2022-12-04T09:38:47.372Z,56.96
2022-12-04T09:42:04.201Z,56.66
2022-12-04T09:44:41.189Z,57.58
2022-12-04T09:47:29.611Z,57.16
2022-12-04T09:50:16.608Z,56.06
2022-12-04T09:52:58.835Z,55.81
2022-12-04T09:55:36.016Z,55.91
2022-12-04T09:58:11.835Z,56.20
2022-12-04T10:00:45.723Z,55.98
2022-12-04T10:03:22.789Z,56.12
2022-12-04T10:06:17.054Z,55.84
2022-12-04T10:09:03.711Z,55.02
2022-12-04T10:11:42.789Z,54.96
2022-12-04T10:14:09.850Z,54.82
2022-12-04T10:17:07.887Z,54.93
2022-12-04T10:19:42.669Z,55.47
2022-12-04T10:22:47.804Z,55.31
2022-12-04T10:25:36.983Z,55.49
2022-12-04T10:28:24.606Z,56.63
2022-12-04T10:30:55.800Z,56.17
2022-12-04T10:33:42.134Z,56.42
2022-12-04T10:36:22.385Z,55.89
2022-12-04T10:38:56.788Z,56.06
2022-12-04T10:41:29.627Z,56.22
2022-12-04T10:43:57.382Z,56.19
2022-12-04T10:46:31.084Z,56.15
2022-12-04T10:49:24.247Z,55.84
2022-12-04T10:51:51.695Z,56.13
2022-12-04T10:54:33.208Z,56.38
2022-12-04T10:57:04.340Z,56.10
2022-12-04T10:59:32.491Z,55.87
2022-12-04T11:02:28.135Z,55.42
2022-12-04T11:05:06.033Z,55.24
2022-12-04T11:07:54.817Z,55.24
2022-12-04T11:10:37.517Z,54.86
2022-12-04T11:13:18.257Z,55.29
2022-12-04T11:15:51.813Z,55.41
2022-12-04T11:18:33.145Z,55.31
2022-12-04T11:21:07.973Z,55.10
2022-12-04T11:23:44.184Z,55.26
2022-12-04T11:26:12.415Z,55.89
2022-12-04T11:28:45.166Z,56.14
2022-12-04T11:31:20.652Z,56.10
2022-12-04T11:34:01.353Z,57.76
2022-12-04T11:36:41.139Z,57.48
2022-12-04T11:39:43.931Z,57.79
2022-12-04T11:42:13.979Z,57.66
2022-12-04T11:44:53.162Z,57.76
2022-12-04T11:47:22.791Z,57.33
2022-12-04T11:50:14.417Z,57.12
2022-12-04T11:53:07.351Z,56.61
2022-12-04T11:56:31.219Z,56.48
2022-12-04T11:59:22.440Z,56.39
2022-12-04T12:02:32.683Z,57.08
2022-12-04T12:05:16.722Z,56.98
2022-12-04T12:08:11.571Z,56.46
2022-12-04T12:10:45.015Z,55.91
2022-12-04T12:13:32.847Z,56.76
2022-12-04T12:16:51.633Z,56.47
2022-12-04T12:19:37.280Z,55.76
2022-12-04T12:22:49.917Z,56.00
2022-12-04T12:25:38.292Z,55.80
2022-12-04T12:28:23.723Z,55.60
2022-12-04T12:31:31.543Z,55.40
2022-12-04T12:34:13.287Z,55.60
2022-12-04T12:36:46.258Z,55.55
2022-12-04T12:39:39.338Z,54.95
2022-12-04T12:42:16.303Z,55.24
2022-12-04T12:44:56.246Z,55.27
2022-12-04T12:47:35.127Z,55.96
2022-12-04T12:50:15.530Z,55.68
2022-12-04T12:53:01.532Z,55.32
2022-12-04T12:55:50.313Z,55.95
2022-12-04T12:58:44.142Z,56.13
2022-12-04T13:01:40.451Z,57.15
2022-12-04T13:04:34.723Z,56.64
2022-12-04T13:07:16.984Z,56.12
2022-12-04T13:10:55.164Z,55.79
2022-12-04T13:13:28.970Z,55.89
2022-12-04T13:16:19.031Z,55.73
2022-12-04T13:19:19.086Z,55.96
2022-12-04T13:22:18.813Z,55.30
2022-12-04T13:25:15.736Z,55.06
2022-12-04T13:28:13.074Z,54.57
2022-12-04T13:31:12.020Z,54.96
2022-12-04T13:34:28.336Z,54.82
2022-12-04T13:37:37.038Z,54.84
2022-12-04T13:40:51.789Z,55.22
2022-12-04T13:43:42.493Z,55.05
2022-12-04T13:46:38.451Z,55.17
2022-12-04T13:49:31.079Z,55.09
2022-12-04T13:52:00.788Z,55.37
2022-12-04T13:54:31.345Z,55.44
2022-12-04T13:57:17.093Z,55.27
2022-12-04T13:59:45.135Z,55.06
2022-12-04T14:02:35.869Z,55.31
2022-12-04T14:05:12.563Z,55.42
2022-12-04T14:08:07.912Z,55.26
2022-12-04T14:10:38.102Z,55.33
2022-12-04T14:13:20.985Z,55.22
2022-12-04T14:15:48.524Z,54.83
2022-12-04T14:18:30.999Z,54.69
2022-12-04T14:21:05.728Z,54.75
2022-12-04T14:23:41.846Z,54.50
2022-12-04T14:27:10.823Z,54.58
2022-12-04T14:29:44.949Z,54.17
2022-12-04T14:32:41.850Z,53.79
2022-12-04T14:35:20.779Z,53.52
2022-12-04T14:38:02.397Z,53.99
2022-12-04T14:40:37.724Z,53.88
2022-12-04T14:43:05.686Z,53.52
2022-12-04T14:45:45.700Z,53.46
2022-12-04T14:48:24.770Z,53.60
2022-12-04T14:51:15.010Z,53.68
2022-12-04T14:54:03.561Z,53.99
2022-12-04T14:56:47.542Z,54.14
2022-12-04T14:59:25.254Z,53.94
2022-12-04T15:01:55.224Z,54.14
2022-12-04T15:04:33.265Z,54.15
2022-12-04T15:07:03.274Z,54.19
2022-12-04T15:09:49.196Z,53.84
2022-12-04T15:12:34.433Z,53.86
2022-12-04T15:15:25.483Z,53.90
2022-12-04T15:18:10.127Z,53.51
2022-12-04T15:20:55.211Z,53.54
2022-12-04T15:23:40.487Z,53.14
2022-12-04T15:26:23.504Z,53.52
2022-12-04T15:29:03.707Z,53.47
2022-12-04T15:31:43.604Z,54.17
2022-12-04T15:34:17.745Z,54.65
2022-12-04T15:36:49.377Z,54.53
2022-12-04T15:39:27.215Z,54.37
2022-12-04T15:42:28.467Z,53.75
2022-12-04T15:45:02.255Z,53.36
2022-12-04T15:47:49.587Z,53.57
2022-12-04T15:50:16.623Z,53.61
2022-12-04T15:53:05.644Z,53.90
2022-12-04T15:56:08.788Z,54.12
2022-12-04T15:58:39.794Z,54.24
2022-12-04T16:01:13.257Z,53.66
2022-12-04T16:03:43.578Z,53.42
2022-12-04T16:06:19.105Z,53.39
2022-12-04T16:09:01.336Z,53.32
2022-12-04T16:11:35.801Z,52.61
2022-12-04T16:14:16.852Z,52.83
2022-12-04T16:16:55.777Z,52.84
2022-12-04T16:19:36.805Z,52.65
2022-12-04T16:22:13.350Z,52.85
2022-12-04T16:24:41.250Z,52.82
2022-12-04T16:27:20.109Z,53.09
2022-12-04T16:29:47.259Z,53.18
2022-12-04T16:32:21.231Z,53.19
2022-12-04T16:34:49.024Z,53.19
2022-12-04T16:37:20.759Z,53.41
2022-12-04T16:39:49.200Z,53.63
2022-12-04T16:42:29.536Z,53.69
2022-12-04T16:44:58.531Z,53.87
2022-12-04T16:47:25.947Z,53.68
2022-12-04T16:49:53.538Z,53.76
2022-12-04T16:52:21.083Z,53.59
2022-12-04T16:54:48.389Z,53.19
2022-12-04T16:57:15.590Z,53.13
2022-12-04T16:59:42.685Z,52.85
2022-12-04T17:02:22.075Z,52.65
2022-12-04T17:04:52.772Z,52.58
2022-12-04T17:07:24.314Z,52.65
2022-12-04T17:09:51.667Z,52.95
2022-12-04T17:12:18.818Z,52.80
2022-12-04T17:14:45.913Z,52.71
2022-12-04T17:17:13.047Z,52.60
2022-12-04T17:19:40.125Z,52.41
2022-12-04T17:22:07.935Z,52.58
2022-12-04T17:24:37.851Z,52.67
2022-12-04T17:27:07.949Z,52.78
2022-12-04T17:29:35.046Z,52.76
2022-12-04T17:32:02.071Z,52.87
2022-12-04T17:34:29.367Z,52.91
2022-12-04T17:36:56.462Z,53.31
2022-12-04T17:39:23.850Z,53.16
2022-12-04T17:41:51.007Z,53.36
2022-12-04T17:44:18.425Z,53.42
2022-12-04T17:46:45.682Z,53.55
2022-12-04T17:49:12.764Z,53.51
2022-12-04T17:51:40.130Z,53.49
2022-12-04T17:54:07.903Z,53.16
2022-12-04T17:56:35.069Z,52.87
2022-12-04T17:59:02.803Z,52.71
2022-12-04T18:01:30.797Z,52.45
2022-12-04T18:04:03.428Z,52.84
2022-12-04T18:06:38.198Z,52.71
2022-12-04T18:09:07.988Z,53.02
2022-12-04T18:11:39.651Z,53.43
2022-12-04T18:14:14.245Z,53.28
2022-12-04T18:16:47.668Z,53.45
2022-12-04T18:19:15.548Z,53.61
2022-12-04T18:21:42.784Z,53.32
2022-12-04T18:24:10.374Z,53.12
2022-12-04T18:26:42.209Z,52.71
2022-12-04T18:29:13.211Z,52.67
2022-12-04T18:31:41.325Z,52.40
2022-12-04T18:34:09.072Z,52.40
2022-12-04T18:36:40.840Z,52.54
2022-12-04T18:39:23.740Z,52.40
2022-12-04T18:41:51.244Z,52.22
2022-12-04T18:44:18.583Z,52.11
2022-12-04T18:46:45.972Z,51.73
2022-12-04T18:49:14.546Z,51.35
2022-12-04T18:51:49.664Z,51.36
2022-12-04T18:54:26.440Z,51.37
2022-12-04T18:56:53.570Z,51.32
2022-12-04T18:59:23.991Z,51.35
2022-12-04T19:01:52.508Z,51.44
2022-12-04T19:04:23.212Z,51.34
2022-12-04T19:06:54.299Z,51.21
2022-12-04T19:09:47.189Z,51.04
2022-12-04T19:12:13.273Z,51.28
2022-12-04T19:14:40.673Z,51.51
2022-12-04T19:17:11.461Z,51.80
2022-12-04T19:19:38.641Z,51.54
2022-12-04T19:22:05.752Z,51.51
2022-12-04T19:24:32.931Z,51.39
2022-12-04T19:27:01.824Z,51.37
2022-12-04T19:29:28.877Z,51.37
2022-12-04T19:31:59.225Z,51.57
2022-12-04T19:34:27.095Z,51.67
2022-12-04T19:36:55.191Z,51.41
2022-12-04T19:39:22.375Z,51.32
2022-12-04T19:41:49.663Z,51.60
2022-12-04T19:44:47.280Z,51.68
2022-12-04T19:47:04.377Z,51.76
2022-12-04T19:49:31.740Z,51.86
2022-12-04T19:51:58.836Z,52.01
2022-12-04T19:54:26.101Z,52.17
2022-12-04T19:56:53.253Z,51.71
2022-12-04T19:59:21.004Z,51.63
2022-12-04T20:01:48.255Z,51.63
2022-12-04T20:04:15.734Z,51.75
2022-12-04T20:06:46.079Z,51.85
2022-12-04T20:09:20.267Z,51.33
2022-12-04T20:11:47.818Z,51.49
2022-12-04T20:14:15.355Z,51.14
2022-12-04T20:16:43.127Z,51.26
2022-12-04T20:19:14.910Z,51.08
2022-12-04T20:21:42.707Z,51.15
2022-12-04T20:24:13.736Z,51.31
2022-12-04T20:26:43.450Z,50.97
2022-12-04T20:29:14.791Z,50.90
2022-12-04T20:31:45.848Z,50.71
2022-12-04T20:34:17.351Z,50.52
2022-12-04T20:36:47.199Z,50.41
2022-12-04T20:39:15.753Z,50.54
2022-12-04T20:41:43.445Z,50.45
2022-12-04T20:44:15.357Z,50.14
2022-12-04T20:46:42.977Z,50.43
2022-12-04T20:49:21.750Z,50.48
2022-12-04T20:51:51.816Z,50.09
2022-12-04T20:54:21.820Z,50.37
2022-12-04T20:56:49.913Z,50.44
2022-12-04T20:59:19.028Z,50.32
2022-12-04T21:01:48.977Z,50.31
2022-12-04T21:04:17.972Z,50.36
2022-12-04T21:06:46.961Z,50.50
2022-12-04T21:09:23.712Z,50.31
2022-12-04T21:11:54.792Z,50.59
2022-12-04T21:14:50.943Z,50.30
2022-12-04T21:17:19.673Z,50.32
2022-12-04T21:19:49.726Z,50.52
2022-12-04T21:22:18.751Z,50.53
2022-12-04T21:24:45.929Z,50.65
2022-12-04T21:27:18.952Z,50.43
2022-12-04T21:29:48.014Z,50.38
2022-12-04T21:32:18.206Z,50.56
2022-12-04T21:34:45.535Z,50.63
2022-12-04T21:37:12.778Z,50.74
2022-12-04T21:39:40.029Z,50.91
2022-12-04T21:42:25.847Z,51.26
2022-12-04T21:44:53.057Z,51.19
2022-12-04T21:47:20.217Z,51.08
2022-12-04T21:49:47.711Z,50.93
2022-12-04T21:52:19.407Z,51.01
2022-12-04T21:54:51.709Z,50.80
2022-12-04T21:57:19.729Z,51.08
2022-12-04T21:59:47.097Z,50.90
2022-12-04T22:02:15.890Z,51.03
2022-12-04T22:04:43.264Z,50.99
2022-12-04T22:07:10.976Z,51.08
2022-12-04T22:09:38.645Z,51.26
2022-12-04T22:12:20.242Z,51.12
2022-12-04T22:14:53.837Z,51.03
2022-12-04T22:17:20.923Z,50.55
2022-12-04T22:19:48.038Z,51.16
2022-12-04T22:22:15.079Z,51.24
2022-12-04T22:24:42.198Z,51.40
2022-12-04T22:27:14.897Z,51.68
2022-12-04T22:29:50.134Z,51.57
2022-12-04T22:32:19.075Z,51.43
2022-12-04T22:34:49.147Z,51.60
2022-12-04T22:37:16.301Z,51.71
2022-12-04T22:39:43.376Z,51.65
2022-12-04T22:42:10.481Z,51.43
2022-12-04T22:44:37.501Z,51.41
2022-12-04T22:47:04.771Z,51.35
2022-12-04T22:49:31.922Z,51.37
2022-12-04T22:51:59.090Z,51.39
2022-12-04T22:54:26.121Z,51.68
2022-12-04T22:56:53.424Z,51.82
2022-12-04T22:59:20.460Z,51.92
2022-12-04T23:01:47.537Z,51.90
2022-12-04T23:04:14.631Z,52.21
2022-12-04T23:06:41.982Z,52.42
2022-12-04T23:09:14.663Z,52.84
2022-12-04T23:11:42.943Z,52.88
2022-12-04T23:14:14.435Z,52.69
2022-12-04T23:16:42.050Z,52.68
2022-12-04T23:19:14.338Z,52.40
2022-12-04T23:21:41.919Z,52.22
2022-12-04T23:24:09.917Z,52.08
2022-12-04T23:26:42.408Z,52.40
2022-12-04T23:29:29.805Z,52.07
2022-12-04T23:31:57.151Z,52.31
2022-12-04T23:34:24.527Z,52.27
2022-12-04T23:36:51.572Z,52.61
2022-12-04T23:39:18.676Z,52.83
2022-12-04T23:41:45.876Z,52.76
2022-12-04T23:44:12.916Z,52.73
2022-12-04T23:46:40.085Z,52.94
2022-12-04T23:49:07.113Z,53.13
2022-12-04T23:51:34.154Z,53.13
2022-12-04T23:54:01.238Z,53.21
2022-12-04T23:56:28.771Z,53.25
2022-12-04T23:58:58.006Z,53.50
